sensor_id;sensor_type;location;lat;lon;timestamp;temperature;humidity
5675;DHT22;2860;54.284;10.158;2023-03-19T00:02:12;8.00;99.90
5675;DHT22;2860;54.284;10.158;2023-03-19T00:04:37;8.00;99.90
5675;DHT22;2860;54.284;10.158;2023-03-19T00:07:03;8.00;99.90
5675;DHT22;2860;54.284;10.158;2023-03-19T00:09:29;8.10;99.90
5675;DHT22;2860;54.284;10.158;2023-03-19T00:11:54;8.10;99.90
5675;DHT22;2860;54.284;10.158;2023-03-19T00:14:21;8.20;99.90
5675;DHT22;2860;54.284;10.158;2023-03-19T00:16:46;8.20;99.90
5675;DHT22;2860;54.284;10.158;2023-03-19T00:19:12;8.20;99.90
5675;DHT22;2860;54.284;10.158;2023-03-19T00:21:37;8.30;99.90
5675;DHT22;2860;54.284;10.158;2023-03-19T00:24:03;8.20;99.90
5675;DHT22;2860;54.284;10.158;2023-03-19T00:26:33;8.20;99.90
5675;DHT22;2860;54.284;10.158;2023-03-19T00:28:59;8.20;99.90
5675;DHT22;2860;54.284;10.158;2023-03-19T00:31:27;8.10;99.90
5675;DHT22;2860;54.284;10.158;2023-03-19T00:33:53;8.10;99.90
5675;DHT22;2860;54.284;10.158;2023-03-19T00:36:19;8.00;99.90
5675;DHT22;2860;54.284;10.158;2023-03-19T00:38:45;7.90;99.90
5675;DHT22;2860;54.284;10.158;2023-03-19T00:41:12;7.80;99.90
5675;DHT22;2860;54.284;10.158;2023-03-19T00:43:38;7.70;99.90
5675;DHT22;2860;54.284;10.158;2023-03-19T00:46:04;7.60;99.90
5675;DHT22;2860;54.284;10.158;2023-03-19T00:48:30;7.50;99.90
5675;DHT22;2860;54.284;10.158;2023-03-19T00:51:01;7.50;99.90
5675;DHT22;2860;54.284;10.158;2023-03-19T00:53:27;7.50;99.90
5675;DHT22;2860;54.284;10.158;2023-03-19T00:55:53;7.40;99.90
5675;DHT22;2860;54.284;10.158;2023-03-19T00:58:18;7.40;99.90
5675;DHT22;2860;54.284;10.158;2023-03-19T01:00:44;7.40;99.90
5675;DHT22;2860;54.284;10.158;2023-03-19T01:03:09;7.30;99.90
5675;DHT22;2860;54.284;10.158;2023-03-19T01:05:35;7.30;99.90
5675;DHT22;2860;54.284;10.158;2023-03-19T01:08:01;7.20;99.90
5675;DHT22;2860;54.284;10.158;2023-03-19T01:10:27;7.20;99.90
5675;DHT22;2860;54.284;10.158;2023-03-19T01:12:52;7.20;99.90
5675;DHT22;2860;54.284;10.158;2023-03-19T01:15:18;7.20;99.90
5675;DHT22;2860;54.284;10.158;2023-03-19T01:17:43;7.30;99.90
5675;DHT22;2860;54.284;10.158;2023-03-19T01:20:11;7.30;99.90
5675;DHT22;2860;54.284;10.158;2023-03-19T01:22:43;7.30;99.90
5675;DHT22;2860;54.284;10.158;2023-03-19T01:25:10;7.30;99.90
5675;DHT22;2860;54.284;10.158;2023-03-19T01:27:37;7.30;99.90
5675;DHT22;2860;54.284;10.158;2023-03-19T01:30:03;7.30;99.90
5675;DHT22;2860;54.284;10.158;2023-03-19T01:32:28;7.30;99.90
5675;DHT22;2860;54.284;10.158;2023-03-19T01:34:54;7.20;99.90
5675;DHT22;2860;54.284;10.158;2023-03-19T01:37:19;7.20;99.90
5675;DHT22;2860;54.284;10.158;2023-03-19T01:39:45;7.10;99.90
5675;DHT22;2860;54.284;10.158;2023-03-19T01:42:11;7.00;99.90
5675;DHT22;2860;54.284;10.158;2023-03-19T01:44:38;6.90;99.90
5675;DHT22;2860;54.284;10.158;2023-03-19T01:47:15;6.80;99.90
5675;DHT22;2860;54.284;10.158;2023-03-19T01:49:42;6.70;99.90
5675;DHT22;2860;54.284;10.158;2023-03-19T01:52:12;6.60;99.90
5675;DHT22;2860;54.284;10.158;2023-03-19T01:54:40;6.60;99.90
5675;DHT22;2860;54.284;10.158;2023-03-19T01:57:08;6.50;99.90
5675;DHT22;2860;54.284;10.158;2023-03-19T01:59:38;6.40;99.90
5675;DHT22;2860;54.284;10.158;2023-03-19T02:04:41;6.30;99.90
5675;DHT22;2860;54.284;10.158;2023-03-19T02:07:08;6.30;99.90
5675;DHT22;2860;54.284;10.158;2023-03-19T02:09:35;6.30;99.90
5675;DHT22;2860;54.284;10.158;2023-03-19T02:12:01;6.30;99.90
5675;DHT22;2860;54.284;10.158;2023-03-19T02:14:26;6.30;99.90
5675;DHT22;2860;54.284;10.158;2023-03-19T02:16:53;6.30;99.90
5675;DHT22;2860;54.284;10.158;2023-03-19T02:19:39;6.20;99.90
5675;DHT22;2860;54.284;10.158;2023-03-19T02:22:09;6.20;99.90
5675;DHT22;2860;54.284;10.158;2023-03-19T02:24:44;6.10;99.90
5675;DHT22;2860;54.284;10.158;2023-03-19T02:27:13;6.10;99.90
5675;DHT22;2860;54.284;10.158;2023-03-19T02:29:38;6.10;99.90
5675;DHT22;2860;54.284;10.158;2023-03-19T02:32:04;6.10;99.90
5675;DHT22;2860;54.284;10.158;2023-03-19T02:34:33;6.00;99.90
5675;DHT22;2860;54.284;10.158;2023-03-19T02:37:10;6.00;99.90
5675;DHT22;2860;54.284;10.158;2023-03-19T02:39:46;6.00;99.90
5675;DHT22;2860;54.284;10.158;2023-03-19T02:42:15;5.90;99.90
5675;DHT22;2860;54.284;10.158;2023-03-19T02:44:41;5.90;99.90
5675;DHT22;2860;54.284;10.158;2023-03-19T02:47:07;5.90;99.90
5675;DHT22;2860;54.284;10.158;2023-03-19T02:52:44;5.90;99.90
5675;DHT22;2860;54.284;10.158;2023-03-19T02:55:10;5.90;99.90
5675;DHT22;2860;54.284;10.158;2023-03-19T02:57:35;5.80;99.90
5675;DHT22;2860;54.284;10.158;2023-03-19T03:00:02;5.80;99.90
5675;DHT22;2860;54.284;10.158;2023-03-19T03:02:29;5.80;99.90
5675;DHT22;2860;54.284;10.158;2023-03-19T03:04:55;5.80;99.90
5675;DHT22;2860;54.284;10.158;2023-03-19T03:07:21;5.80;99.90
5675;DHT22;2860;54.284;10.158;2023-03-19T03:09:47;5.80;99.90
5675;DHT22;2860;54.284;10.158;2023-03-19T03:12:12;5.80;99.90
5675;DHT22;2860;54.284;10.158;2023-03-19T03:14:38;5.80;99.90
5675;DHT22;2860;54.284;10.158;2023-03-19T03:17:04;5.80;99.90
5675;DHT22;2860;54.284;10.158;2023-03-19T03:19:30;5.80;99.90
5675;DHT22;2860;54.284;10.158;2023-03-19T03:21:56;5.70;99.90
5675;DHT22;2860;54.284;10.158;2023-03-19T03:24:22;5.70;99.90
5675;DHT22;2860;54.284;10.158;2023-03-19T03:26:48;5.70;99.90
5675;DHT22;2860;54.284;10.158;2023-03-19T03:29:14;5.70;99.90
5675;DHT22;2860;54.284;10.158;2023-03-19T03:31:39;5.70;99.90
5675;DHT22;2860;54.284;10.158;2023-03-19T03:34:05;5.70;99.90
5675;DHT22;2860;54.284;10.158;2023-03-19T03:36:31;5.70;99.90
5675;DHT22;2860;54.284;10.158;2023-03-19T03:38:56;5.70;99.90
5675;DHT22;2860;54.284;10.158;2023-03-19T03:41:22;5.60;99.90
5675;DHT22;2860;54.284;10.158;2023-03-19T03:43:48;5.60;99.90
5675;DHT22;2860;54.284;10.158;2023-03-19T03:46:13;5.60;99.90
5675;DHT22;2860;54.284;10.158;2023-03-19T03:48:39;5.50;99.90
5675;DHT22;2860;54.284;10.158;2023-03-19T03:51:05;5.50;99.90
5675;DHT22;2860;54.284;10.158;2023-03-19T03:53:30;5.50;99.90
5675;DHT22;2860;54.284;10.158;2023-03-19T03:55:56;5.50;99.90
5675;DHT22;2860;54.284;10.158;2023-03-19T03:58:21;5.50;99.90
5675;DHT22;2860;54.284;10.158;2023-03-19T04:00:48;5.40;99.90
5675;DHT22;2860;54.284;10.158;2023-03-19T04:03:14;5.40;99.90
5675;DHT22;2860;54.284;10.158;2023-03-19T04:05:39;5.40;99.90
5675;DHT22;2860;54.284;10.158;2023-03-19T04:08:05;5.30;99.90
5675;DHT22;2860;54.284;10.158;2023-03-19T04:10:31;5.30;99.90
5675;DHT22;2860;54.284;10.158;2023-03-19T04:13:00;5.30;99.90
5675;DHT22;2860;54.284;10.158;2023-03-19T04:15:25;5.30;99.90
5675;DHT22;2860;54.284;10.158;2023-03-19T04:17:51;5.20;99.90
5675;DHT22;2860;54.284;10.158;2023-03-19T04:20:16;5.30;99.90
5675;DHT22;2860;54.284;10.158;2023-03-19T04:22:43;5.20;99.90
5675;DHT22;2860;54.284;10.158;2023-03-19T04:25:09;5.20;99.90
5675;DHT22;2860;54.284;10.158;2023-03-19T04:27:34;5.20;99.90
5675;DHT22;2860;54.284;10.158;2023-03-19T04:30:00;5.10;99.90
5675;DHT22;2860;54.284;10.158;2023-03-19T04:32:25;5.10;99.90
5675;DHT22;2860;54.284;10.158;2023-03-19T04:34:51;5.10;99.90
5675;DHT22;2860;54.284;10.158;2023-03-19T04:37:17;5.10;99.90
5675;DHT22;2860;54.284;10.158;2023-03-19T04:39:42;5.00;99.90
5675;DHT22;2860;54.284;10.158;2023-03-19T04:42:09;5.00;99.90
5675;DHT22;2860;54.284;10.158;2023-03-19T04:44:35;5.00;99.90
5675;DHT22;2860;54.284;10.158;2023-03-19T04:47:02;5.00;99.90
5675;DHT22;2860;54.284;10.158;2023-03-19T04:49:27;4.90;99.90
5675;DHT22;2860;54.284;10.158;2023-03-19T04:51:53;4.90;99.90
5675;DHT22;2860;54.284;10.158;2023-03-19T04:54:18;4.90;99.90
5675;DHT22;2860;54.284;10.158;2023-03-19T04:56:45;4.90;99.90
5675;DHT22;2860;54.284;10.158;2023-03-19T04:59:10;4.90;99.90
5675;DHT22;2860;54.284;10.158;2023-03-19T05:01:36;4.90;99.90
5675;DHT22;2860;54.284;10.158;2023-03-19T05:04:02;4.90;99.90
5675;DHT22;2860;54.284;10.158;2023-03-19T05:06:27;4.90;99.90
5675;DHT22;2860;54.284;10.158;2023-03-19T05:08:53;4.90;99.90
5675;DHT22;2860;54.284;10.158;2023-03-19T05:11:19;4.90;99.90
5675;DHT22;2860;54.284;10.158;2023-03-19T05:13:44;4.90;99.90
5675;DHT22;2860;54.284;10.158;2023-03-19T05:16:10;4.90;99.90
5675;DHT22;2860;54.284;10.158;2023-03-19T05:18:37;5.00;99.90
5675;DHT22;2860;54.284;10.158;2023-03-19T05:21:03;5.00;99.90
5675;DHT22;2860;54.284;10.158;2023-03-19T05:23:29;5.00;99.90
5675;DHT22;2860;54.284;10.158;2023-03-19T05:25:57;5.00;99.90
5675;DHT22;2860;54.284;10.158;2023-03-19T05:28:22;5.00;99.90
5675;DHT22;2860;54.284;10.158;2023-03-19T05:30:48;5.00;99.90
5675;DHT22;2860;54.284;10.158;2023-03-19T05:33:13;5.10;99.90
5675;DHT22;2860;54.284;10.158;2023-03-19T05:35:39;5.10;99.90
5675;DHT22;2860;54.284;10.158;2023-03-19T05:38:05;5.20;99.90
5675;DHT22;2860;54.284;10.158;2023-03-19T05:40:30;5.30;99.90
5675;DHT22;2860;54.284;10.158;2023-03-19T05:42:57;5.30;99.90
5675;DHT22;2860;54.284;10.158;2023-03-19T05:45:23;5.40;99.90
5675;DHT22;2860;54.284;10.158;2023-03-19T05:47:48;5.50;99.90
5675;DHT22;2860;54.284;10.158;2023-03-19T05:50:15;5.50;99.90
5675;DHT22;2860;54.284;10.158;2023-03-19T05:52:41;5.50;99.90
5675;DHT22;2860;54.284;10.158;2023-03-19T05:55:07;5.50;99.90
5675;DHT22;2860;54.284;10.158;2023-03-19T05:57:32;5.60;99.90
5675;DHT22;2860;54.284;10.158;2023-03-19T05:59:58;5.60;99.90
5675;DHT22;2860;54.284;10.158;2023-03-19T06:02:23;5.70;99.90
5675;DHT22;2860;54.284;10.158;2023-03-19T06:04:49;5.70;99.90
5675;DHT22;2860;54.284;10.158;2023-03-19T06:07:15;5.80;99.90
5675;DHT22;2860;54.284;10.158;2023-03-19T06:09:41;5.80;99.90
5675;DHT22;2860;54.284;10.158;2023-03-19T06:12:07;5.90;99.90
5675;DHT22;2860;54.284;10.158;2023-03-19T06:14:32;5.90;99.90
5675;DHT22;2860;54.284;10.158;2023-03-19T06:16:58;6.00;99.90
5675;DHT22;2860;54.284;10.158;2023-03-19T06:19:23;6.10;99.90
5675;DHT22;2860;54.284;10.158;2023-03-19T06:21:50;6.10;99.90
5675;DHT22;2860;54.284;10.158;2023-03-19T06:24:16;6.20;99.90
5675;DHT22;2860;54.284;10.158;2023-03-19T06:26:42;6.30;99.90
5675;DHT22;2860;54.284;10.158;2023-03-19T06:29:07;6.30;99.90
5675;DHT22;2860;54.284;10.158;2023-03-19T06:31:33;6.30;99.90
5675;DHT22;2860;54.284;10.158;2023-03-19T06:33:58;6.30;99.90
5675;DHT22;2860;54.284;10.158;2023-03-19T06:36:24;6.30;99.90
5675;DHT22;2860;54.284;10.158;2023-03-19T06:38:50;6.40;99.90
5675;DHT22;2860;54.284;10.158;2023-03-19T06:41:16;6.30;99.90
5675;DHT22;2860;54.284;10.158;2023-03-19T06:43:42;6.40;99.90
5675;DHT22;2860;54.284;10.158;2023-03-19T06:46:08;6.40;99.90
5675;DHT22;2860;54.284;10.158;2023-03-19T06:48:34;6.40;99.90
5675;DHT22;2860;54.284;10.158;2023-03-19T06:51:00;6.50;99.90
5675;DHT22;2860;54.284;10.158;2023-03-19T06:53:26;6.60;99.90
5675;DHT22;2860;54.284;10.158;2023-03-19T06:55:51;6.70;99.90
5675;DHT22;2860;54.284;10.158;2023-03-19T06:58:17;6.80;99.90
5675;DHT22;2860;54.284;10.158;2023-03-19T07:00:42;7.00;99.90
5675;DHT22;2860;54.284;10.158;2023-03-19T07:03:09;7.10;99.90
5675;DHT22;2860;54.284;10.158;2023-03-19T07:05:35;7.40;99.90
5675;DHT22;2860;54.284;10.158;2023-03-19T07:08:00;7.60;99.90
5675;DHT22;2860;54.284;10.158;2023-03-19T07:10:26;7.80;99.90
5675;DHT22;2860;54.284;10.158;2023-03-19T07:12:52;8.00;99.90
5675;DHT22;2860;54.284;10.158;2023-03-19T07:15:17;8.10;99.90
5675;DHT22;2860;54.284;10.158;2023-03-19T07:17:46;8.40;99.90
5675;DHT22;2860;54.284;10.158;2023-03-19T07:20:12;8.70;99.90
5675;DHT22;2860;54.284;10.158;2023-03-19T07:22:38;8.80;99.90
5675;DHT22;2860;54.284;10.158;2023-03-19T07:25:03;8.90;99.90
5675;DHT22;2860;54.284;10.158;2023-03-19T07:27:29;9.00;99.90
5675;DHT22;2860;54.284;10.158;2023-03-19T07:29:55;8.90;99.90
5675;DHT22;2860;54.284;10.158;2023-03-19T07:32:21;8.90;99.90
5675;DHT22;2860;54.284;10.158;2023-03-19T07:34:48;8.90;99.90
5675;DHT22;2860;54.284;10.158;2023-03-19T07:37:13;8.90;99.90
5675;DHT22;2860;54.284;10.158;2023-03-19T07:39:38;9.00;99.90
5675;DHT22;2860;54.284;10.158;2023-03-19T07:42:04;9.20;99.90
5675;DHT22;2860;54.284;10.158;2023-03-19T07:44:30;9.30;99.90
5675;DHT22;2860;54.284;10.158;2023-03-19T07:46:55;9.50;99.90
5675;DHT22;2860;54.284;10.158;2023-03-19T07:49:21;9.70;99.90
5675;DHT22;2860;54.284;10.158;2023-03-19T07:51:47;10.00;99.90
5675;DHT22;2860;54.284;10.158;2023-03-19T07:54:13;10.10;99.90
5675;DHT22;2860;54.284;10.158;2023-03-19T07:56:38;10.30;99.90
5675;DHT22;2860;54.284;10.158;2023-03-19T07:59:03;10.40;99.90
5675;DHT22;2860;54.284;10.158;2023-03-19T08:01:30;10.40;99.90
5675;DHT22;2860;54.284;10.158;2023-03-19T08:03:55;10.60;99.90
5675;DHT22;2860;54.284;10.158;2023-03-19T08:06:21;10.80;99.90
5675;DHT22;2860;54.284;10.158;2023-03-19T08:08:46;11.00;99.90
5675;DHT22;2860;54.284;10.158;2023-03-19T08:11:12;11.20;99.90
5675;DHT22;2860;54.284;10.158;2023-03-19T08:13:37;11.30;99.90
5675;DHT22;2860;54.284;10.158;2023-03-19T08:16:03;11.30;99.90
5675;DHT22;2860;54.284;10.158;2023-03-19T08:18:28;11.40;99.90
5675;DHT22;2860;54.284;10.158;2023-03-19T08:20:54;11.40;99.90
5675;DHT22;2860;54.284;10.158;2023-03-19T08:23:19;11.50;99.90
5675;DHT22;2860;54.284;10.158;2023-03-19T08:25:45;11.50;99.90
5675;DHT22;2860;54.284;10.158;2023-03-19T08:28:11;11.40;99.90
5675;DHT22;2860;54.284;10.158;2023-03-19T08:30:37;11.40;99.90
5675;DHT22;2860;54.284;10.158;2023-03-19T08:33:03;11.40;99.90
5675;DHT22;2860;54.284;10.158;2023-03-19T08:35:29;11.40;99.90
5675;DHT22;2860;54.284;10.158;2023-03-19T08:37:55;11.40;99.90
5675;DHT22;2860;54.284;10.158;2023-03-19T08:40:21;11.40;99.90
5675;DHT22;2860;54.284;10.158;2023-03-19T08:42:46;11.40;99.90
5675;DHT22;2860;54.284;10.158;2023-03-19T08:45:13;11.40;99.90
5675;DHT22;2860;54.284;10.158;2023-03-19T08:47:40;11.40;99.90
5675;DHT22;2860;54.284;10.158;2023-03-19T08:50:07;11.60;99.90
5675;DHT22;2860;54.284;10.158;2023-03-19T08:52:32;11.70;99.90
5675;DHT22;2860;54.284;10.158;2023-03-19T08:54:58;11.90;99.90
5675;DHT22;2860;54.284;10.158;2023-03-19T08:57:23;11.90;99.90
5675;DHT22;2860;54.284;10.158;2023-03-19T08:59:51;12.00;99.90
5675;DHT22;2860;54.284;10.158;2023-03-19T09:02:16;12.00;99.90
5675;DHT22;2860;54.284;10.158;2023-03-19T09:04:42;12.00;99.90
5675;DHT22;2860;54.284;10.158;2023-03-19T09:07:09;12.10;99.90
5675;DHT22;2860;54.284;10.158;2023-03-19T09:09:40;12.10;99.90
5675;DHT22;2860;54.284;10.158;2023-03-19T09:12:07;12.20;99.90
5675;DHT22;2860;54.284;10.158;2023-03-19T09:14:34;12.30;99.90
5675;DHT22;2860;54.284;10.158;2023-03-19T09:16:59;12.30;99.90
5675;DHT22;2860;54.284;10.158;2023-03-19T09:19:25;12.20;99.90
5675;DHT22;2860;54.284;10.158;2023-03-19T09:21:51;12.20;99.90
5675;DHT22;2860;54.284;10.158;2023-03-19T09:24:17;12.20;99.90
5675;DHT22;2860;54.284;10.158;2023-03-19T09:26:43;12.20;99.90
5675;DHT22;2860;54.284;10.158;2023-03-19T09:29:09;12.30;99.90
5675;DHT22;2860;54.284;10.158;2023-03-19T09:31:36;12.50;99.90
5675;DHT22;2860;54.284;10.158;2023-03-19T09:34:01;12.60;99.90
5675;DHT22;2860;54.284;10.158;2023-03-19T09:36:27;12.80;99.90
5675;DHT22;2860;54.284;10.158;2023-03-19T09:38:52;12.90;99.90
5675;DHT22;2860;54.284;10.158;2023-03-19T09:44:31;13.30;99.90
5675;DHT22;2860;54.284;10.158;2023-03-19T09:47:03;13.50;99.90
5675;DHT22;2860;54.284;10.158;2023-03-19T09:49:38;13.60;99.90
5675;DHT22;2860;54.284;10.158;2023-03-19T09:52:19;13.80;99.90
5675;DHT22;2860;54.284;10.158;2023-03-19T09:54:50;14.10;99.90
5675;DHT22;2860;54.284;10.158;2023-03-19T09:57:17;14.70;99.90
5675;DHT22;2860;54.284;10.158;2023-03-19T09:59:44;14.90;99.90
5675;DHT22;2860;54.284;10.158;2023-03-19T10:02:40;15.30;99.90
5675;DHT22;2860;54.284;10.158;2023-03-19T10:05:26;15.60;99.90
5675;DHT22;2860;54.284;10.158;2023-03-19T10:08:20;15.40;99.90
5675;DHT22;2860;54.284;10.158;2023-03-19T10:10:59;15.10;99.90
5675;DHT22;2860;54.284;10.158;2023-03-19T10:13:51;14.80;99.90
5675;DHT22;2860;54.284;10.158;2023-03-19T10:16:21;14.50;99.90
5675;DHT22;2860;54.284;10.158;2023-03-19T10:18:50;14.40;99.90
5675;DHT22;2860;54.284;10.158;2023-03-19T10:21:28;14.50;99.90
5675;DHT22;2860;54.284;10.158;2023-03-19T10:24:03;14.70;99.90
5675;DHT22;2860;54.284;10.158;2023-03-19T10:26:33;14.90;99.90
5675;DHT22;2860;54.284;10.158;2023-03-19T10:29:14;15.10;99.90
5675;DHT22;2860;54.284;10.158;2023-03-19T10:31:51;15.40;99.90
5675;DHT22;2860;54.284;10.158;2023-03-19T10:34:27;15.70;99.90
5675;DHT22;2860;54.284;10.158;2023-03-19T10:37:01;16.20;99.90
5675;DHT22;2860;54.284;10.158;2023-03-19T10:39:30;16.70;99.90
5675;DHT22;2860;54.284;10.158;2023-03-19T10:47:39;16.20;99.90
5675;DHT22;2860;54.284;10.158;2023-03-19T10:50:06;16.30;99.90
5675;DHT22;2860;54.284;10.158;2023-03-19T10:52:35;16.30;99.90
5675;DHT22;2860;54.284;10.158;2023-03-19T10:55:06;16.20;99.90
5675;DHT22;2860;54.284;10.158;2023-03-19T10:57:41;15.90;99.90
5675;DHT22;2860;54.284;10.158;2023-03-19T11:00:24;15.70;99.90
5675;DHT22;2860;54.284;10.158;2023-03-19T11:02:54;15.70;99.90
5675;DHT22;2860;54.284;10.158;2023-03-19T11:07:49;15.70;99.90
5675;DHT22;2860;54.284;10.158;2023-03-19T11:10:16;15.80;99.90
5675;DHT22;2860;54.284;10.158;2023-03-19T11:12:55;15.90;99.90
5675;DHT22;2860;54.284;10.158;2023-03-19T11:15:27;15.90;99.90
5675;DHT22;2860;54.284;10.158;2023-03-19T11:17:58;15.70;99.90
5675;DHT22;2860;54.284;10.158;2023-03-19T11:20:36;15.60;99.90
5675;DHT22;2860;54.284;10.158;2023-03-19T11:23:06;15.40;99.90
5675;DHT22;2860;54.284;10.158;2023-03-19T11:25:38;15.40;99.90
5675;DHT22;2860;54.284;10.158;2023-03-19T11:28:15;15.20;99.90
5675;DHT22;2860;54.284;10.158;2023-03-19T11:33:41;15.10;99.90
5675;DHT22;2860;54.284;10.158;2023-03-19T11:47:34;14.90;99.90
5675;DHT22;2860;54.284;10.158;2023-03-19T11:53:29;14.90;99.90
5675;DHT22;2860;54.284;10.158;2023-03-19T12:05:27;15.60;99.90
5675;DHT22;2860;54.284;10.158;2023-03-19T12:11:13;15.30;99.90
5675;DHT22;2860;54.284;10.158;2023-03-19T12:16:59;14.90;99.90
5675;DHT22;2860;54.284;10.158;2023-03-19T12:22:39;14.50;99.90
5675;DHT22;2860;54.284;10.158;2023-03-19T12:35:54;14.30;99.90
5675;DHT22;2860;54.284;10.158;2023-03-19T12:40:58;14.50;99.90
5675;DHT22;2860;54.284;10.158;2023-03-19T12:43:45;14.80;99.90
5675;DHT22;2860;54.284;10.158;2023-03-19T12:46:19;15.00;99.90
5675;DHT22;2860;54.284;10.158;2023-03-19T12:51:39;15.10;99.90
5675;DHT22;2860;54.284;10.158;2023-03-19T12:54:33;15.00;99.90
5675;DHT22;2860;54.284;10.158;2023-03-19T12:57:05;14.80;99.90
5675;DHT22;2860;54.284;10.158;2023-03-19T13:00:04;14.60;99.90
5675;DHT22;2860;54.284;10.158;2023-03-19T13:02:40;14.40;99.90
5675;DHT22;2860;54.284;10.158;2023-03-19T13:08:12;14.20;99.90
5675;DHT22;2860;54.284;10.158;2023-03-19T13:10:39;14.20;99.90
5675;DHT22;2860;54.284;10.158;2023-03-19T13:13:23;14.20;99.90
5675;DHT22;2860;54.284;10.158;2023-03-19T13:15:55;14.20;99.90
5675;DHT22;2860;54.284;10.158;2023-03-19T13:21:36;14.40;99.90
5675;DHT22;2860;54.284;10.158;2023-03-19T13:24:29;14.40;99.90
5675;DHT22;2860;54.284;10.158;2023-03-19T13:26:58;14.40;99.90
5675;DHT22;2860;54.284;10.158;2023-03-19T13:29:27;14.50;99.90
5675;DHT22;2860;54.284;10.158;2023-03-19T13:34:34;14.50;99.90
5675;DHT22;2860;54.284;10.158;2023-03-19T13:37:12;14.50;99.90
5675;DHT22;2860;54.284;10.158;2023-03-19T13:39:39;14.50;99.90
5675;DHT22;2860;54.284;10.158;2023-03-19T13:42:38;14.50;99.90
5675;DHT22;2860;54.284;10.158;2023-03-19T13:47:48;14.70;99.90
5675;DHT22;2860;54.284;10.158;2023-03-19T13:50:21;14.80;99.90
5675;DHT22;2860;54.284;10.158;2023-03-19T13:52:51;14.80;99.90
5675;DHT22;2860;54.284;10.158;2023-03-19T14:01:01;14.80;99.90
5675;DHT22;2860;54.284;10.158;2023-03-19T14:03:32;14.90;99.90
5675;DHT22;2860;54.284;10.158;2023-03-19T14:05:58;14.90;99.90
5675;DHT22;2860;54.284;10.158;2023-03-19T14:08:27;15.00;99.90
5675;DHT22;2860;54.284;10.158;2023-03-19T14:10:58;15.00;99.90
5675;DHT22;2860;54.284;10.158;2023-03-19T14:13:37;14.90;99.90
5675;DHT22;2860;54.284;10.158;2023-03-19T14:16:15;15.00;99.90
5675;DHT22;2860;54.284;10.158;2023-03-19T14:18:42;14.80;99.90
5675;DHT22;2860;54.284;10.158;2023-03-19T14:21:16;14.80;99.90
5675;DHT22;2860;54.284;10.158;2023-03-19T14:23:51;14.70;99.90
5675;DHT22;2860;54.284;10.158;2023-03-19T14:26:20;14.70;99.90
5675;DHT22;2860;54.284;10.158;2023-03-19T14:29:04;14.70;99.90
5675;DHT22;2860;54.284;10.158;2023-03-19T14:31:49;14.70;99.90
5675;DHT22;2860;54.284;10.158;2023-03-19T14:34:17;14.70;99.90
5675;DHT22;2860;54.284;10.158;2023-03-19T14:37:03;14.60;99.90
5675;DHT22;2860;54.284;10.158;2023-03-19T14:39:38;14.60;99.90
5675;DHT22;2860;54.284;10.158;2023-03-19T14:42:26;14.80;99.90
5675;DHT22;2860;54.284;10.158;2023-03-19T14:48:12;14.80;99.90
5675;DHT22;2860;54.284;10.158;2023-03-19T14:51:54;15.00;99.90
5675;DHT22;2860;54.284;10.158;2023-03-19T14:53:53;15.00;99.90
5675;DHT22;2860;54.284;10.158;2023-03-19T14:56:29;15.00;99.90
5675;DHT22;2860;54.284;10.158;2023-03-19T14:58:56;15.00;99.90
5675;DHT22;2860;54.284;10.158;2023-03-19T15:01:25;14.90;99.90
5675;DHT22;2860;54.284;10.158;2023-03-19T15:03:58;14.80;99.90
5675;DHT22;2860;54.284;10.158;2023-03-19T15:06:24;14.70;99.90
5675;DHT22;2860;54.284;10.158;2023-03-19T15:08:54;14.60;99.90
5675;DHT22;2860;54.284;10.158;2023-03-19T15:16:52;14.30;99.90
5675;DHT22;2860;54.284;10.158;2023-03-19T15:19:26;14.30;99.90
5675;DHT22;2860;54.284;10.158;2023-03-19T15:22:47;14.30;99.90
5675;DHT22;2860;54.284;10.158;2023-03-19T15:24:48;14.20;99.90
5675;DHT22;2860;54.284;10.158;2023-03-19T15:27:21;14.10;99.90
5675;DHT22;2860;54.284;10.158;2023-03-19T15:29:47;14.10;99.90
5675;DHT22;2860;54.284;10.158;2023-03-19T15:32:29;14.10;99.90
5675;DHT22;2860;54.284;10.158;2023-03-19T15:34:56;14.10;99.90
5675;DHT22;2860;54.284;10.158;2023-03-19T15:37:21;14.10;99.90
5675;DHT22;2860;54.284;10.158;2023-03-19T15:39:49;14.00;99.90
5675;DHT22;2860;54.284;10.158;2023-03-19T15:42:18;14.00;99.90
5675;DHT22;2860;54.284;10.158;2023-03-19T15:47:36;13.70;99.90
5675;DHT22;2860;54.284;10.158;2023-03-19T15:52:34;13.50;99.90
5675;DHT22;2860;54.284;10.158;2023-03-19T15:55:01;13.50;99.90
5675;DHT22;2860;54.284;10.158;2023-03-19T15:57:27;13.50;99.90
5675;DHT22;2860;54.284;10.158;2023-03-19T15:59:54;13.50;99.90
5675;DHT22;2860;54.284;10.158;2023-03-19T16:02:31;13.40;99.90
5675;DHT22;2860;54.284;10.158;2023-03-19T16:04:59;13.40;99.90
5675;DHT22;2860;54.284;10.158;2023-03-19T16:09:57;13.20;99.90
5675;DHT22;2860;54.284;10.158;2023-03-19T16:12:36;13.20;99.90
5675;DHT22;2860;54.284;10.158;2023-03-19T16:17:50;13.00;99.90
5675;DHT22;2860;54.284;10.158;2023-03-19T16:20:16;13.00;99.90
5675;DHT22;2860;54.284;10.158;2023-03-19T16:22:47;13.00;99.90
5675;DHT22;2860;54.284;10.158;2023-03-19T16:25:17;12.90;99.90
5675;DHT22;2860;54.284;10.158;2023-03-19T16:27:44;12.90;99.90
5675;DHT22;2860;54.284;10.158;2023-03-19T16:30:28;12.80;99.90
5675;DHT22;2860;54.284;10.158;2023-03-19T16:33:05;12.80;99.90
5675;DHT22;2860;54.284;10.158;2023-03-19T16:35:32;12.80;99.90
5675;DHT22;2860;54.284;10.158;2023-03-19T16:40:40;12.80;99.90
5675;DHT22;2860;54.284;10.158;2023-03-19T16:43:13;12.80;99.90
5675;DHT22;2860;54.284;10.158;2023-03-19T16:45:39;12.80;99.90
5675;DHT22;2860;54.284;10.158;2023-03-19T16:48:07;12.80;99.90
5675;DHT22;2860;54.284;10.158;2023-03-19T16:50:36;12.90;99.90
5675;DHT22;2860;54.284;10.158;2023-03-19T16:53:04;12.90;99.90
5675;DHT22;2860;54.284;10.158;2023-03-19T16:55:33;12.80;99.90
5675;DHT22;2860;54.284;10.158;2023-03-19T17:00:27;12.60;99.90
5675;DHT22;2860;54.284;10.158;2023-03-19T17:02:54;12.40;99.90
5675;DHT22;2860;54.284;10.158;2023-03-19T17:05:21;12.40;99.90
5675;DHT22;2860;54.284;10.158;2023-03-19T17:07:47;12.30;99.90
5675;DHT22;2860;54.284;10.158;2023-03-19T17:10:14;12.30;99.90
5675;DHT22;2860;54.284;10.158;2023-03-19T17:12:40;12.30;99.90
5675;DHT22;2860;54.284;10.158;2023-03-19T17:15:28;12.30;99.90
5675;DHT22;2860;54.284;10.158;2023-03-19T17:17:55;12.30;99.90
5675;DHT22;2860;54.284;10.158;2023-03-19T17:20:26;12.20;99.90
5675;DHT22;2860;54.284;10.158;2023-03-19T17:22:53;12.10;99.90
5675;DHT22;2860;54.284;10.158;2023-03-19T17:25:18;12.00;99.90
5675;DHT22;2860;54.284;10.158;2023-03-19T17:27:44;11.90;99.90
5675;DHT22;2860;54.284;10.158;2023-03-19T17:30:10;11.70;99.90
5675;DHT22;2860;54.284;10.158;2023-03-19T17:32:37;11.60;99.90
5675;DHT22;2860;54.284;10.158;2023-03-19T17:35:16;11.50;99.90
5675;DHT22;2860;54.284;10.158;2023-03-19T17:37:42;11.30;99.90
5675;DHT22;2860;54.284;10.158;2023-03-19T17:40:37;11.20;99.90
5675;DHT22;2860;54.284;10.158;2023-03-19T17:43:06;11.10;99.90
5675;DHT22;2860;54.284;10.158;2023-03-19T17:45:32;11.00;99.90
5675;DHT22;2860;54.284;10.158;2023-03-19T17:47:58;10.90;99.90
5675;DHT22;2860;54.284;10.158;2023-03-19T17:50:25;10.90;99.90
5675;DHT22;2860;54.284;10.158;2023-03-19T17:52:52;10.90;99.90
5675;DHT22;2860;54.284;10.158;2023-03-19T17:55:24;10.90;99.90
5675;DHT22;2860;54.284;10.158;2023-03-19T17:57:50;10.90;99.90